createdAt,value
2018-02-20T00:00:14.894Z,11.8
2018-02-20T00:01:16.580Z,11.8
2018-02-20T00:02:19.097Z,11.8
2018-02-20T00:03:22.522Z,11.9
2018-02-20T00:04:24.268Z,11.8
2018-02-20T00:05:28.304Z,11.7
2018-02-20T00:06:29.741Z,11.8
2018-02-20T00:07:31.428Z,11.7
2018-02-20T00:08:33.123Z,11.8
2018-02-20T00:09:34.836Z,11.8
2018-02-20T00:10:36.545Z,11.8
2018-02-20T00:11:38.249Z,11.8
2018-02-20T00:12:39.954Z,11.8
2018-02-20T00:13:41.660Z,11.8
2018-02-20T00:14:43.370Z,11.8
2018-02-20T00:15:45.085Z,11.8
2018-02-20T00:16:46.798Z,11.7
2018-02-20T00:17:48.503Z,11.7
2018-02-20T00:18:50.209Z,11.8
2018-02-20T00:19:51.917Z,11.8
2018-02-20T00:20:53.654Z,11.7
2018-02-20T00:21:55.334Z,11.7
2018-02-20T00:22:57.050Z,11.8
2018-02-20T00:23:58.730Z,11.7
2018-02-20T00:25:00.425Z,11.7
2018-02-20T00:26:02.142Z,11.7
2018-02-20T00:27:03.867Z,11.7
2018-02-20T00:28:05.571Z,11.8
2018-02-20T00:29:07.278Z,11.7
2018-02-20T00:30:08.990Z,11.8
2018-02-20T00:31:10.720Z,11.7
2018-02-20T00:32:12.433Z,11.8
2018-02-20T00:33:14.178Z,11.7
2018-02-20T00:34:15.885Z,11.7
2018-02-20T00:35:17.596Z,11.7
2018-02-20T00:36:19.318Z,11.7
2018-02-20T00:37:21.042Z,11.7
2018-02-20T00:38:22.737Z,11.7
2018-02-20T00:39:24.449Z,11.8
2018-02-20T00:40:26.166Z,11.8
2018-02-20T00:41:27.882Z,11.9
2018-02-20T00:42:29.618Z,12.0
2018-02-20T00:43:31.329Z,11.9
2018-02-20T00:44:33.053Z,12.0
2018-02-20T00:45:34.799Z,11.9
2018-02-20T00:46:36.545Z,11.9
2018-02-20T00:47:38.260Z,11.9
2018-02-20T00:48:39.958Z,11.9
2018-02-20T00:49:41.653Z,11.8
2018-02-20T00:50:43.378Z,11.8
2018-02-20T00:51:45.100Z,11.8
2018-02-20T00:52:46.968Z,11.7
2018-02-20T00:53:48.657Z,11.7
2018-02-20T00:54:50.370Z,11.8
2018-02-20T00:55:52.084Z,11.7
2018-02-20T00:56:53.780Z,11.7
2018-02-20T00:57:55.483Z,11.7
2018-02-20T00:58:57.184Z,11.7
2018-02-20T00:59:58.892Z,11.7
2018-02-20T01:01:00.589Z,11.8
2018-02-20T01:02:02.303Z,11.7
2018-02-20T01:03:04.001Z,11.7
2018-02-20T01:04:05.721Z,11.7
2018-02-20T01:05:07.429Z,11.7
2018-02-20T01:06:09.149Z,11.8
2018-02-20T01:07:10.853Z,11.9
2018-02-20T01:08:12.564Z,11.7
2018-02-20T01:09:14.256Z,11.8
2018-02-20T01:10:15.977Z,11.8
2018-02-20T01:11:17.690Z,11.8
2018-02-20T01:12:19.397Z,11.7
2018-02-20T01:13:21.663Z,11.7
2018-02-20T01:14:23.377Z,11.7
2018-02-20T01:15:25.111Z,11.6
2018-02-20T01:16:26.814Z,11.5
2018-02-20T01:17:28.810Z,11.6
2018-02-20T01:18:36.142Z,11.6
2018-02-20T01:19:42.738Z,11.6
2018-02-20T01:20:44.085Z,11.6
2018-02-20T01:21:45.790Z,11.6
2018-02-20T01:22:47.539Z,11.6
2018-02-20T01:23:49.247Z,11.6
2018-02-20T01:24:50.985Z,11.5
2018-02-20T01:25:52.701Z,11.6
2018-02-20T01:26:54.395Z,11.6
2018-02-20T01:27:56.102Z,11.5
2018-02-20T01:28:57.812Z,11.5
2018-02-20T01:29:59.512Z,11.4
2018-02-20T01:31:01.227Z,11.5
2018-02-20T01:32:02.930Z,11.4
2018-02-20T01:33:04.641Z,11.4
2018-02-20T01:34:06.353Z,-40.0
2018-02-20T01:35:08.086Z,-40.0
2018-02-20T01:36:09.788Z,-40.0
2018-02-20T01:37:11.472Z,-40.0
2018-02-20T01:38:13.188Z,-40.0
2018-02-20T01:39:14.930Z,-40.0
2018-02-20T01:40:16.634Z,-40.0
2018-02-20T01:41:18.349Z,-40.0
2018-02-20T01:42:20.069Z,11.2
2018-02-20T01:43:21.771Z,11.2
2018-02-20T01:44:23.454Z,11.2
2018-02-20T01:45:25.157Z,11.2
2018-02-20T01:46:26.880Z,11.2
2018-02-20T01:47:28.617Z,11.2
2018-02-20T01:48:30.341Z,11.0
2018-02-20T01:49:32.047Z,11.1
2018-02-20T01:50:33.741Z,11.0
2018-02-20T01:51:35.464Z,11.0
2018-02-20T01:52:37.183Z,11.0
2018-02-20T01:53:38.872Z,11.0
2018-02-20T01:54:40.573Z,11.0
2018-02-20T01:55:42.287Z,10.9
2018-02-20T01:56:44.004Z,10.9
2018-02-20T01:57:45.726Z,10.9
2018-02-20T01:58:47.429Z,10.9
2018-02-20T01:59:49.124Z,10.9
2018-02-20T02:00:50.842Z,10.9
2018-02-20T02:01:52.554Z,10.8
2018-02-20T02:02:54.263Z,10.8
2018-02-20T02:03:55.984Z,10.7
2018-02-20T02:04:57.691Z,10.8
2018-02-20T02:05:59.402Z,10.6
2018-02-20T02:07:01.217Z,10.6
2018-02-20T02:08:02.803Z,10.7
2018-02-20T02:09:04.511Z,10.6
2018-02-20T02:10:06.281Z,10.7
2018-02-20T02:11:07.987Z,10.6
2018-02-20T02:12:09.717Z,10.6
2018-02-20T02:13:11.445Z,10.6
2018-02-20T02:14:13.164Z,10.6
2018-02-20T02:15:14.875Z,10.5
2018-02-20T02:16:16.589Z,10.5
2018-02-20T02:17:18.309Z,10.6
2018-02-20T02:18:20.005Z,10.5
2018-02-20T02:19:21.726Z,10.5
2018-02-20T02:20:23.432Z,10.5
2018-02-20T02:21:25.130Z,10.5
2018-02-20T02:22:26.840Z,10.4
2018-02-20T02:23:28.537Z,10.4
2018-02-20T02:24:30.289Z,10.4
2018-02-20T02:25:31.983Z,10.4
2018-02-20T02:26:33.679Z,10.4
2018-02-20T02:27:35.387Z,10.4
2018-02-20T02:28:37.101Z,10.4
2018-02-20T02:29:38.803Z,10.4
2018-02-20T02:30:40.516Z,10.4
2018-02-20T02:31:42.225Z,10.4
2018-02-20T02:32:43.945Z,10.4
2018-02-20T02:33:45.628Z,10.4
2018-02-20T02:34:47.338Z,10.4
2018-02-20T02:35:49.048Z,10.4
2018-02-20T02:36:50.768Z,10.2
2018-02-20T02:37:52.490Z,10.3
2018-02-20T02:38:54.225Z,10.3
2018-02-20T02:39:55.932Z,10.2
2018-02-20T02:40:57.634Z,10.2
2018-02-20T02:41:59.348Z,10.2
2018-02-20T02:43:01.050Z,10.1
2018-02-20T02:44:02.751Z,10.1
2018-02-20T02:45:04.458Z,10.2
2018-02-20T02:46:06.167Z,10.1
2018-02-20T02:47:07.900Z,10.1
2018-02-20T02:48:09.601Z,10.1
2018-02-20T02:49:11.289Z,10.1
2018-02-20T02:50:12.988Z,10.1
2018-02-20T02:51:14.710Z,10.1
2018-02-20T02:52:16.434Z,10.1
2018-02-20T02:53:18.147Z,10.0
2018-02-20T02:54:19.872Z,10.2
2018-02-20T02:55:21.570Z,10.1
2018-02-20T02:56:23.265Z,10.1
2018-02-20T02:57:24.949Z,10.1
2018-02-20T02:58:26.636Z,10.1
2018-02-20T02:59:28.365Z,10.1
2018-02-20T03:00:30.054Z,10.1
2018-02-20T03:01:31.771Z,10.1
2018-02-20T03:02:33.479Z,10.1
2018-02-20T03:03:35.206Z,10.1
2018-02-20T03:04:36.951Z,10.0
2018-02-20T03:05:38.649Z,10.0
2018-02-20T03:06:40.349Z,10.1
2018-02-20T03:07:42.051Z,10.1
2018-02-20T03:08:43.775Z,10.0
2018-02-20T03:09:45.511Z,10.0
2018-02-20T03:10:47.242Z,10.0
2018-02-20T03:11:48.939Z,10.0
2018-02-20T03:12:50.680Z,10.0
2018-02-20T03:13:52.382Z,10.0
2018-02-20T03:14:54.097Z,10.0
2018-02-20T03:15:55.794Z,10.0
2018-02-20T03:16:57.558Z,10.0
2018-02-20T03:17:59.269Z,10.0
2018-02-20T03:19:00.985Z,10.0
2018-02-20T03:20:02.693Z,10.0
2018-02-20T03:21:04.394Z,10.0
2018-02-20T03:22:06.088Z,9.9
2018-02-20T03:23:07.834Z,10.0
2018-02-20T03:24:09.549Z,9.9
2018-02-20T03:25:11.239Z,10.0
2018-02-20T03:26:12.953Z,9.9
2018-02-20T03:27:14.646Z,10.0
2018-02-20T03:28:16.367Z,9.9
2018-02-20T03:29:18.111Z,10.0
2018-02-20T03:30:19.803Z,9.9
2018-02-20T03:31:21.503Z,9.9
2018-02-20T03:32:23.192Z,9.9
2018-02-20T03:33:24.928Z,10.0
2018-02-20T03:34:26.615Z,9.9
2018-02-20T03:35:28.302Z,9.9
2018-02-20T03:36:30.014Z,9.9
2018-02-20T03:37:31.688Z,9.9
2018-02-20T03:38:33.371Z,9.9
2018-02-20T03:39:35.107Z,10.0
2018-02-20T03:40:36.825Z,10.0
2018-02-20T03:41:38.553Z,10.0
2018-02-20T03:42:40.275Z,9.9
2018-02-20T03:43:41.982Z,9.9
2018-02-20T03:44:43.680Z,9.8
2018-02-20T03:45:45.372Z,9.8
2018-02-20T03:46:47.064Z,9.8
2018-02-20T03:47:48.770Z,9.8
2018-02-20T03:48:50.479Z,9.7
2018-02-20T03:49:52.178Z,9.7
2018-02-20T03:50:53.876Z,9.7
2018-02-20T03:51:55.602Z,9.7
2018-02-20T03:52:57.296Z,9.7
2018-02-20T03:53:58.984Z,9.8
2018-02-20T03:55:00.683Z,9.8
2018-02-20T03:56:02.411Z,-40.0
2018-02-20T03:57:04.109Z,-40.0
2018-02-20T03:58:05.856Z,-40.0
2018-02-20T03:59:07.585Z,-40.0
2018-02-20T04:00:09.301Z,-40.0
2018-02-20T04:01:11.011Z,-40.0
2018-02-20T04:02:12.744Z,-40.0
2018-02-20T04:03:14.460Z,-40.0
2018-02-20T04:04:16.158Z,-40.0
2018-02-20T04:05:17.906Z,9.6
2018-02-20T04:06:19.604Z,9.6
2018-02-20T04:07:21.299Z,-40.0
2018-02-20T04:08:23.003Z,-40.0
2018-02-20T04:09:24.735Z,-40.0
2018-02-20T04:10:26.453Z,-40.0
2018-02-20T04:11:28.220Z,-40.0
2018-02-20T04:12:29.944Z,-40.0
2018-02-20T04:13:31.658Z,-40.0
2018-02-20T04:14:33.389Z,-40.0
2018-02-20T04:15:35.150Z,-40.0
2018-02-20T04:16:36.899Z,-40.0
2018-02-20T04:17:38.671Z,-40.0
2018-02-20T04:18:40.433Z,-40.0
2018-02-20T04:19:42.123Z,-40.0
2018-02-20T04:20:43.843Z,-40.0
2018-02-20T04:21:45.589Z,-40.0
2018-02-20T04:22:47.428Z,-40.0
2018-02-20T04:23:49.170Z,-40.0
2018-02-20T04:24:50.902Z,-40.0
2018-02-20T04:25:52.670Z,-40.0
2018-02-20T04:26:54.397Z,-40.0
2018-02-20T04:27:56.151Z,-40.0
2018-02-20T04:28:57.854Z,-40.0
2018-02-20T04:29:59.581Z,-40.0
2018-02-20T04:31:01.290Z,-40.0
2018-02-20T04:32:03.065Z,-40.0
2018-02-20T04:33:04.794Z,-40.0
2018-02-20T04:34:06.493Z,-40.0
2018-02-20T04:35:08.233Z,-40.0
2018-02-20T04:36:09.948Z,-40.0
2018-02-20T04:37:11.710Z,-40.0
2018-02-20T04:38:13.465Z,-40.0
2018-02-20T04:39:15.181Z,-40.0
2018-02-20T04:40:16.898Z,-40.0
2018-02-20T04:41:18.644Z,-40.0
2018-02-20T04:42:20.391Z,-40.0
2018-02-20T04:43:22.113Z,-40.0
2018-02-20T04:44:23.861Z,-40.0
2018-02-20T04:45:25.596Z,-40.0
2018-02-20T04:46:27.315Z,-40.0
2018-02-20T04:47:29.058Z,-40.0
2018-02-20T04:48:30.766Z,-40.0
2018-02-20T04:49:32.485Z,-40.0
2018-02-20T04:50:34.245Z,-40.0
2018-02-20T04:51:35.977Z,-40.0
2018-02-20T04:52:37.703Z,-40.0
2018-02-20T04:53:39.430Z,-40.0
2018-02-20T04:54:41.149Z,-40.0
2018-02-20T04:55:42.870Z,-40.0
2018-02-20T04:56:44.651Z,-40.0
2018-02-20T04:57:46.374Z,-40.0
2018-02-20T04:58:48.141Z,-40.0
2018-02-20T04:59:49.922Z,-40.0
2018-02-20T05:00:51.637Z,-40.0
2018-02-20T05:01:53.358Z,-40.0
2018-02-20T05:02:55.084Z,-40.0
2018-02-20T05:03:56.796Z,-40.0
2018-02-20T05:04:58.532Z,-40.0
2018-02-20T05:06:00.321Z,-40.0
2018-02-20T05:07:02.046Z,-40.0
2018-02-20T05:08:03.807Z,-40.0
2018-02-20T05:09:05.541Z,-40.0
2018-02-20T05:10:07.306Z,-40.0
2018-02-20T05:11:09.077Z,-40.0
2018-02-20T05:12:10.824Z,-40.0
2018-02-20T05:13:12.563Z,-40.0
2018-02-20T05:14:14.268Z,-40.0
2018-02-20T05:15:15.984Z,-40.0
2018-02-20T05:16:17.741Z,-40.0
2018-02-20T05:17:19.488Z,-40.0
2018-02-20T05:18:21.210Z,-40.0
2018-02-20T05:19:22.944Z,-40.0
2018-02-20T05:20:24.692Z,-40.0
2018-02-20T05:21:26.405Z,-40.0
2018-02-20T05:22:28.124Z,-40.0
2018-02-20T05:23:29.834Z,-40.0
2018-02-20T05:24:31.564Z,-40.0
2018-02-20T05:25:33.283Z,-40.0
2018-02-20T05:26:35.000Z,-40.0
2018-02-20T05:27:36.702Z,-40.0
2018-02-20T05:28:38.435Z,-40.0
2018-02-20T05:29:40.153Z,-40.0
2018-02-20T05:30:41.856Z,-40.0
2018-02-20T05:31:43.573Z,-40.0
2018-02-20T05:32:46.232Z,-40.0
2018-02-20T05:33:47.954Z,-40.0
2018-02-20T05:34:49.692Z,-40.0
2018-02-20T05:35:51.421Z,-40.0
2018-02-20T05:36:53.124Z,-40.0
2018-02-20T05:37:54.831Z,-40.0
2018-02-20T05:38:56.548Z,-40.0
2018-02-20T05:39:58.284Z,-40.0
2018-02-20T05:41:00.004Z,-40.0
2018-02-20T05:42:01.735Z,-40.0
2018-02-20T05:43:03.460Z,-40.0
2018-02-20T05:44:05.182Z,-40.0
2018-02-20T05:45:06.899Z,-40.0
2018-02-20T05:46:08.617Z,-40.0
2018-02-20T05:47:10.380Z,-40.0
2018-02-20T05:48:12.091Z,-40.0
2018-02-20T05:49:13.795Z,-40.0
2018-02-20T05:50:15.490Z,-40.0
2018-02-20T05:51:17.209Z,-40.0
2018-02-20T05:52:18.917Z,-40.0
2018-02-20T05:53:20.622Z,-40.0
2018-02-20T05:54:22.341Z,-40.0
2018-02-20T05:55:24.089Z,-40.0
2018-02-20T05:56:25.792Z,-40.0
2018-02-20T05:57:27.506Z,-40.0
2018-02-20T05:58:29.214Z,-40.0
2018-02-20T05:59:30.932Z,-40.0
2018-02-20T06:00:32.655Z,-40.0
2018-02-20T06:01:34.367Z,-40.0
2018-02-20T06:02:36.064Z,-40.0
2018-02-20T06:03:37.822Z,-40.0
2018-02-20T06:04:39.538Z,-40.0
2018-02-20T06:05:41.277Z,-40.0
2018-02-20T06:06:43.022Z,-40.0
2018-02-20T06:07:44.822Z,-40.0
2018-02-20T06:08:46.526Z,-40.0
2018-02-20T06:09:48.242Z,-40.0
2018-02-20T06:10:49.970Z,-40.0
2018-02-20T06:11:51.672Z,-40.0
2018-02-20T06:12:53.381Z,-40.0
2018-02-20T06:13:55.105Z,-40.0
2018-02-20T06:14:56.838Z,-40.0
2018-02-20T06:15:58.582Z,-40.0
2018-02-20T06:17:00.291Z,-40.0
2018-02-20T06:18:01.993Z,-40.0
2018-02-20T06:19:03.704Z,-40.0
2018-02-20T06:20:05.430Z,-40.0
2018-02-20T06:21:07.174Z,-40.0
2018-02-20T06:22:08.915Z,-40.0
2018-02-20T06:23:10.651Z,-40.0
2018-02-20T06:24:12.334Z,-40.0
2018-02-20T06:25:14.038Z,-40.0
2018-02-20T06:26:15.782Z,-40.0
2018-02-20T06:27:17.503Z,-40.0
2018-02-20T06:28:19.254Z,-40.0
2018-02-20T06:29:21.051Z,-40.0
2018-02-20T06:30:22.799Z,-40.0
2018-02-20T06:31:24.564Z,-40.0
2018-02-20T06:32:26.298Z,-40.0
2018-02-20T06:33:28.038Z,-40.0
2018-02-20T06:34:29.746Z,-40.0
2018-02-20T06:35:31.480Z,-40.0
2018-02-20T06:36:33.242Z,-40.0
2018-02-20T06:37:34.967Z,-40.0
2018-02-20T06:38:36.685Z,-40.0
2018-02-20T06:39:38.420Z,-40.0
2018-02-20T06:40:40.161Z,-40.0
2018-02-20T06:41:41.899Z,-40.0
2018-02-20T06:42:43.617Z,-40.0
2018-02-20T06:43:45.381Z,-40.0
2018-02-20T06:44:47.091Z,-40.0
2018-02-20T06:45:48.808Z,-40.0
2018-02-20T06:46:50.539Z,-40.0
2018-02-20T06:47:52.235Z,-40.0
2018-02-20T06:48:53.945Z,9.1
2018-02-20T06:49:55.686Z,-40.0
2018-02-20T06:50:57.392Z,-40.0
2018-02-20T06:51:59.099Z,-40.0
2018-02-20T06:53:00.825Z,-40.0
2018-02-20T06:54:02.562Z,-40.0
2018-02-20T06:55:04.267Z,-40.0
2018-02-20T06:56:05.983Z,-40.0
2018-02-20T06:57:07.727Z,-40.0
2018-02-20T06:58:09.423Z,-40.0
2018-02-20T06:59:11.162Z,-40.0
2018-02-20T07:00:12.919Z,-40.0
2018-02-20T07:01:14.626Z,-40.0
2018-02-20T07:02:16.377Z,-40.0
2018-02-20T07:03:18.086Z,-40.0
2018-02-20T07:04:19.848Z,-40.0
2018-02-20T07:05:21.572Z,-40.0
2018-02-20T07:06:23.288Z,-40.0
2018-02-20T07:07:25.014Z,-40.0
2018-02-20T07:08:26.724Z,-40.0
2018-02-20T07:09:28.439Z,-40.0
2018-02-20T07:10:30.155Z,-40.0
2018-02-20T07:11:31.880Z,-40.0
2018-02-20T07:12:33.591Z,-40.0
2018-02-20T07:13:35.307Z,-40.0
2018-02-20T07:14:37.013Z,-40.0
2018-02-20T07:15:38.747Z,-40.0
2018-02-20T07:16:40.460Z,-40.0
2018-02-20T07:17:42.165Z,-40.0
2018-02-20T07:18:43.873Z,-40.0
2018-02-20T07:19:45.610Z,-40.0
2018-02-20T07:20:47.344Z,-40.0
2018-02-20T07:21:49.060Z,-40.0
2018-02-20T07:22:50.763Z,-40.0
2018-02-20T07:23:52.478Z,-40.0
2018-02-20T07:24:54.189Z,-40.0
2018-02-20T07:25:55.924Z,-40.0
2018-02-20T07:26:57.634Z,-40.0
2018-02-20T07:27:59.340Z,-40.0
2018-02-20T07:29:01.064Z,-40.0
2018-02-20T07:30:02.814Z,-40.0
2018-02-20T07:31:04.541Z,-40.0
2018-02-20T07:32:06.261Z,-40.0
2018-02-20T07:33:07.980Z,-40.0
2018-02-20T07:34:09.689Z,-40.0
2018-02-20T07:35:11.428Z,-40.0
2018-02-20T07:36:13.151Z,-40.0
2018-02-20T07:37:14.855Z,-40.0
2018-02-20T07:38:16.557Z,-40.0
2018-02-20T07:39:18.272Z,-40.0
2018-02-20T07:40:20.040Z,-40.0
2018-02-20T07:41:21.764Z,-40.0
2018-02-20T07:42:23.471Z,-40.0
2018-02-20T07:43:25.196Z,-40.0
2018-02-20T07:44:26.927Z,-40.0
2018-02-20T07:45:28.646Z,-40.0
2018-02-20T07:46:30.353Z,-40.0
2018-02-20T07:47:32.064Z,-40.0
2018-02-20T07:48:33.792Z,-40.0
2018-02-20T07:49:35.488Z,-40.0
2018-02-20T07:50:37.220Z,-40.0
2018-02-20T07:51:38.930Z,-40.0
2018-02-20T07:52:40.657Z,-40.0
2018-02-20T07:53:42.377Z,-40.0
2018-02-20T07:54:44.096Z,-40.0
2018-02-20T07:55:45.794Z,-40.0
2018-02-20T07:56:47.486Z,-40.0
2018-02-20T07:57:49.182Z,-40.0
2018-02-20T08:00:20.599Z,9.8
2018-02-20T08:01:22.305Z,9.9
2018-02-20T08:02:23.993Z,9.9
2018-02-20T08:03:25.687Z,10.0
2018-02-20T08:04:27.357Z,9.9
2018-02-20T08:05:29.103Z,10.0
2018-02-20T08:06:30.736Z,10.1
2018-02-20T08:07:32.415Z,10.1
2018-02-20T08:08:34.101Z,10.2
2018-02-20T08:09:35.804Z,10.2
2018-02-20T08:10:37.503Z,10.3
2018-02-20T08:11:39.199Z,10.3
2018-02-20T08:12:40.901Z,10.4
2018-02-20T08:13:42.593Z,10.4
2018-02-20T08:14:44.285Z,10.5
2018-02-20T08:15:46.065Z,10.5
2018-02-20T08:16:47.752Z,10.6
2018-02-20T08:17:49.486Z,10.6
2018-02-20T08:18:51.184Z,10.6
2018-02-20T08:19:52.878Z,10.7
2018-02-20T08:20:54.581Z,10.7
2018-02-20T08:21:56.272Z,10.8
2018-02-20T08:22:57.975Z,10.8
2018-02-20T08:23:59.651Z,10.9
2018-02-20T08:25:01.384Z,11.0
2018-02-20T08:26:03.131Z,11.0
2018-02-20T08:27:04.821Z,11.0
2018-02-20T08:28:06.518Z,11.1
2018-02-20T08:29:08.215Z,11.0
2018-02-20T08:30:09.949Z,11.0
2018-02-20T08:31:11.649Z,11.1
2018-02-20T08:32:13.350Z,11.1
2018-02-20T08:33:15.042Z,11.1
2018-02-20T08:34:16.719Z,11.1
2018-02-20T08:35:18.416Z,11.1
2018-02-20T08:36:20.131Z,11.1
2018-02-20T08:37:21.913Z,11.1
2018-02-20T08:38:23.597Z,11.1
2018-02-20T08:39:25.344Z,11.1
2018-02-20T08:40:27.508Z,11.2
2018-02-20T08:41:29.545Z,11.3
2018-02-20T08:42:31.302Z,11.3
2018-02-20T08:43:33.004Z,11.3
2018-02-20T08:44:34.697Z,11.3
2018-02-20T08:45:36.395Z,11.3
2018-02-20T08:46:38.115Z,11.5
2018-02-20T08:47:39.826Z,11.5
2018-02-20T08:48:41.541Z,11.5
2018-02-20T08:49:43.264Z,11.6
2018-02-20T08:50:44.972Z,11.6
2018-02-20T08:51:46.668Z,11.7
2018-02-20T08:52:48.409Z,11.8
2018-02-20T08:54:30.205Z,11.9
2018-02-20T08:55:31.964Z,12.1
2018-02-20T08:56:33.669Z,12.2
2018-02-20T08:57:35.375Z,12.3
2018-02-20T08:58:37.161Z,12.4
2018-02-20T08:59:38.901Z,12.4
2018-02-20T09:00:40.638Z,12.5
2018-02-20T09:01:42.388Z,12.7
2018-02-20T09:02:44.096Z,12.8
2018-02-20T09:03:45.782Z,12.8
2018-02-20T09:04:47.464Z,12.9
2018-02-20T09:05:49.145Z,13.0
2018-02-20T09:06:50.852Z,13.1
2018-02-20T09:07:52.564Z,13.2
2018-02-20T09:08:54.249Z,13.3
2018-02-20T09:09:55.939Z,13.3
2018-02-20T09:10:57.764Z,13.4
2018-02-20T09:11:59.594Z,13.4
2018-02-20T09:13:01.356Z,13.5
2018-02-20T09:14:03.073Z,13.6
2018-02-20T09:15:04.995Z,13.6
2018-02-20T09:16:06.736Z,13.6
2018-02-20T09:17:08.439Z,13.6
2018-02-20T09:18:10.137Z,13.6
2018-02-20T09:19:11.831Z,13.6
2018-02-20T09:20:13.550Z,13.8
2018-02-20T09:21:15.276Z,13.8
2018-02-20T09:22:16.994Z,13.7
2018-02-20T09:23:18.702Z,13.6
2018-02-20T09:24:20.504Z,13.6
2018-02-20T09:25:22.331Z,13.4
2018-02-20T09:26:24.026Z,13.5
2018-02-20T09:27:25.713Z,13.4
2018-02-20T09:28:27.411Z,13.4
2018-02-20T09:29:29.134Z,13.4
2018-02-20T09:30:30.844Z,13.4
2018-02-20T09:31:32.522Z,13.5
2018-02-20T09:32:34.253Z,13.7
2018-02-20T09:33:35.934Z,13.7
2018-02-20T09:34:37.638Z,13.8
2018-02-20T09:35:39.344Z,13.9
2018-02-20T09:36:41.048Z,13.9
2018-02-20T09:37:42.759Z,14.0
2018-02-20T09:38:44.469Z,14.0
2018-02-20T09:39:46.203Z,14.1
2018-02-20T09:40:47.905Z,14.1
2018-02-20T09:41:49.693Z,14.1
2018-02-20T09:42:51.410Z,14.1
2018-02-20T09:43:53.160Z,14.2
2018-02-20T09:44:54.862Z,14.0
2018-02-20T09:45:57.532Z,14.0
2018-02-20T09:46:59.237Z,13.9
2018-02-20T09:48:00.968Z,13.7
2018-02-20T09:49:02.706Z,13.8
2018-02-20T09:50:04.421Z,13.8
2018-02-20T09:51:06.161Z,13.8
2018-02-20T09:52:07.882Z,13.8
2018-02-20T09:53:09.575Z,13.6
2018-02-20T09:54:11.858Z,13.5
2018-02-20T09:55:13.558Z,13.5
2018-02-20T09:56:15.954Z,13.4
2018-02-20T09:57:17.656Z,13.4
2018-02-20T09:58:19.363Z,13.5
2018-02-20T09:59:21.114Z,13.6
2018-02-20T10:00:22.821Z,13.6
2018-02-20T10:01:24.559Z,13.3
2018-02-20T10:02:26.281Z,13.4
2018-02-20T10:03:29.767Z,13.3
2018-02-20T10:04:34.990Z,13.3
2018-02-20T10:05:36.550Z,13.4
2018-02-20T10:06:38.261Z,13.4
2018-02-20T10:07:39.966Z,13.5
2018-02-20T10:08:41.833Z,13.6
2018-02-20T10:09:43.534Z,13.7
2018-02-20T10:10:45.276Z,13.5
2018-02-20T10:11:47.022Z,13.6
2018-02-20T10:12:48.754Z,13.7
2018-02-20T10:13:53.815Z,13.5
2018-02-20T10:14:59.585Z,13.6
2018-02-20T10:16:04.598Z,13.6
2018-02-20T10:17:10.405Z,13.5
2018-02-20T10:18:15.929Z,13.6
2018-02-20T10:19:21.933Z,13.8
2018-02-20T10:20:26.547Z,14.0
2018-02-20T10:21:32.578Z,13.9
2018-02-20T10:22:37.603Z,13.8
2018-02-20T10:23:40.876Z,14.0
2018-02-20T10:24:44.822Z,14.0
2018-02-20T10:25:50.233Z,14.1
2018-02-20T10:26:54.142Z,14.2
2018-02-20T10:27:58.513Z,14.4
2018-02-20T10:29:02.163Z,14.5
2018-02-20T10:30:04.448Z,14.3
2018-02-20T10:31:09.899Z,14.4
2018-02-20T10:32:15.979Z,14.4
2018-02-20T10:33:21.808Z,14.6
2018-02-20T10:34:26.131Z,14.6
2018-02-20T10:35:32.474Z,14.8
2018-02-20T10:36:37.324Z,14.9
2018-02-20T10:37:44.443Z,14.9
2018-02-20T10:38:51.895Z,15.0
2018-02-20T10:39:57.364Z,15.0
2018-02-20T10:41:03.393Z,15.0
2018-02-20T10:42:09.989Z,15.2
2018-02-20T10:43:17.366Z,15.3
2018-02-20T10:44:22.911Z,15.3
2018-02-20T10:45:29.349Z,15.2
2018-02-20T10:46:36.402Z,15.2
2018-02-20T10:47:41.213Z,15.4
2018-02-20T10:48:49.138Z,15.4
2018-02-20T10:49:53.954Z,15.6
2018-02-20T10:51:01.121Z,15.7
2018-02-20T10:52:07.836Z,16.1
2018-02-20T10:53:14.986Z,16.4
2018-02-20T10:54:21.168Z,17.3
2018-02-20T10:55:27.258Z,17.8
2018-02-20T10:56:33.960Z,18.5
2018-02-20T10:57:39.137Z,18.9
2018-02-20T10:58:43.694Z,19.5
2018-02-20T10:59:51.476Z,20.2
2018-02-20T11:00:59.358Z,20.2
2018-02-20T11:02:06.033Z,20.1
2018-02-20T11:03:12.960Z,19.2
2018-02-20T11:04:18.596Z,19.7
2018-02-20T11:05:25.440Z,19.6
2018-02-20T11:06:30.579Z,19.8
2018-02-20T11:07:37.893Z,20.3
2018-02-20T11:08:44.046Z,20.2
2018-02-20T11:09:49.961Z,19.5
2018-02-20T11:10:55.951Z,19.4
2018-02-20T11:12:02.352Z,19.4
2018-02-20T11:13:06.805Z,19.3
2018-02-20T11:14:13.280Z,19.5
2018-02-20T11:15:19.976Z,19.8
2018-02-20T11:16:26.686Z,19.5
2018-02-20T11:17:33.877Z,19.8
2018-02-20T11:18:39.833Z,19.8
2018-02-20T11:19:45.223Z,19.7
2018-02-20T11:20:49.751Z,19.7
2018-02-20T11:21:56.691Z,19.9
2018-02-20T11:23:02.168Z,20.0
2018-02-20T11:24:07.598Z,20.1
2018-02-20T11:25:12.658Z,20.9
2018-02-20T11:26:18.297Z,20.0
2018-02-20T11:27:22.250Z,20.2
2018-02-20T11:28:25.624Z,20.2
2018-02-20T11:29:30.272Z,20.5
2018-02-20T11:30:36.836Z,20.3
2018-02-20T11:31:43.722Z,20.3
2018-02-20T11:32:47.914Z,20.4
2018-02-20T11:33:53.751Z,20.2
2018-02-20T11:34:55.400Z,20.0
2018-02-20T11:35:57.365Z,20.3
2018-02-20T11:37:05.626Z,20.4
2018-02-20T11:38:11.722Z,-40.0
2018-02-20T11:39:18.430Z,-40.0
2018-02-20T11:40:24.834Z,-40.0
2018-02-20T11:41:29.035Z,-40.0
2018-02-20T11:42:30.561Z,-40.0
2018-02-20T11:43:32.302Z,-40.0
2018-02-20T11:44:34.020Z,-40.0
2018-02-20T11:45:35.749Z,-40.0
2018-02-20T11:46:37.470Z,-40.0
2018-02-20T11:47:39.193Z,-40.0
2018-02-20T11:48:40.925Z,-40.0
2018-02-20T11:49:54.304Z,-40.0
2018-02-20T11:51:04.308Z,-40.0
2018-02-20T11:52:10.050Z,-40.0
2018-02-20T11:53:15.222Z,-40.0
2018-02-20T11:54:16.623Z,-40.0
2018-02-20T11:55:18.371Z,-40.0
2018-02-20T11:56:20.087Z,-40.0
2018-02-20T11:57:21.811Z,-40.0
2018-02-20T11:58:23.531Z,-40.0
2018-02-20T11:59:25.260Z,-40.0
2018-02-20T12:00:26.981Z,-40.0
2018-02-20T12:01:28.717Z,-40.0
2018-02-20T12:02:30.481Z,-40.0
2018-02-20T12:03:32.205Z,-40.0
2018-02-20T12:04:33.935Z,-40.0
2018-02-20T12:05:35.659Z,-40.0
2018-02-20T12:06:37.382Z,-40.0
2018-02-20T12:07:39.128Z,-40.0
2018-02-20T12:08:40.843Z,-40.0
2018-02-20T12:09:42.559Z,-40.0
2018-02-20T12:10:44.299Z,-40.0
2018-02-20T12:11:46.036Z,-40.0
2018-02-20T12:12:47.775Z,-40.0
2018-02-20T12:13:49.539Z,-40.0
2018-02-20T12:14:51.242Z,-40.0
2018-02-20T12:15:52.982Z,-40.0
2018-02-20T12:16:54.691Z,-40.0
2018-02-20T12:17:56.420Z,-40.0
2018-02-20T12:18:58.169Z,-40.0
2018-02-20T12:19:59.887Z,-40.0
2018-02-20T12:21:01.652Z,-40.0
2018-02-20T12:22:03.374Z,-40.0
2018-02-20T12:23:05.106Z,-40.0
2018-02-20T12:24:06.870Z,-40.0
2018-02-20T12:25:08.647Z,-40.0
2018-02-20T12:26:10.360Z,-40.0
2018-02-20T12:27:12.101Z,-40.0
2018-02-20T12:28:13.839Z,-40.0
2018-02-20T12:29:15.624Z,-40.0
2018-02-20T12:30:17.317Z,-40.0
2018-02-20T12:31:19.051Z,-40.0
2018-02-20T12:32:20.771Z,-40.0
2018-02-20T12:33:22.498Z,-40.0
2018-02-20T12:34:24.236Z,-40.0
2018-02-20T12:35:25.949Z,-40.0
2018-02-20T12:36:27.648Z,-40.0
2018-02-20T12:37:29.384Z,-40.0
2018-02-20T12:38:31.127Z,-40.0
2018-02-20T12:39:32.851Z,-40.0
2018-02-20T12:40:34.575Z,-40.0
2018-02-20T12:41:36.348Z,-40.0
2018-02-20T12:42:38.065Z,-40.0
2018-02-20T12:43:39.780Z,-40.0
2018-02-20T12:44:41.505Z,-40.0
2018-02-20T12:45:43.212Z,-40.0
2018-02-20T12:46:44.923Z,-40.0
2018-02-20T12:47:46.662Z,-40.0
2018-02-20T12:48:48.387Z,-40.0
2018-02-20T12:49:51.198Z,-40.0
2018-02-20T12:50:54.707Z,-40.0
2018-02-20T12:52:05.133Z,-40.0
2018-02-20T12:53:13.241Z,-40.0
2018-02-20T12:54:25.306Z,-40.0
2018-02-20T12:55:32.174Z,-40.0
2018-02-20T12:56:33.537Z,-40.0
2018-02-20T12:57:39.750Z,-40.0
2018-02-20T12:58:46.527Z,-40.0
2018-02-20T12:59:53.153Z,-40.0
2018-02-20T13:01:01.049Z,-40.0
2018-02-20T13:02:08.137Z,-40.0
2018-02-20T13:03:12.484Z,-40.0
2018-02-20T13:04:18.851Z,-40.0
2018-02-20T13:05:27.261Z,-40.0
2018-02-20T13:06:32.507Z,-40.0
2018-02-20T13:07:39.040Z,-40.0
2018-02-20T13:08:44.624Z,-40.0
2018-02-20T13:09:50.944Z,-40.0
2018-02-20T13:10:53.985Z,-40.0
2018-02-20T13:12:00.972Z,-40.0
2018-02-20T13:13:08.080Z,-40.0
2018-02-20T13:14:14.130Z,-40.0
2018-02-20T13:15:21.577Z,-40.0
2018-02-20T13:16:27.408Z,-40.0
2018-02-20T13:17:34.400Z,-40.0
2018-02-20T13:18:40.672Z,-40.0
2018-02-20T13:19:44.531Z,-40.0
2018-02-20T13:20:50.296Z,-40.0
2018-02-20T13:21:51.754Z,-40.0
2018-02-20T13:22:53.494Z,-40.0
2018-02-20T13:23:55.293Z,-40.0
2018-02-20T13:24:57.066Z,-40.0
2018-02-20T13:25:58.822Z,-40.0
2018-02-20T13:27:00.540Z,-40.0
2018-02-20T13:28:02.261Z,-40.0
2018-02-20T13:29:04.000Z,-40.0
2018-02-20T13:30:05.768Z,-40.0
2018-02-20T13:31:07.481Z,-40.0
2018-02-20T13:32:10.473Z,-40.0
2018-02-20T13:33:12.242Z,-40.0
2018-02-20T13:34:13.955Z,-40.0
2018-02-20T13:35:15.701Z,-40.0
2018-02-20T13:36:17.552Z,-40.0
2018-02-20T13:37:19.318Z,-40.0
2018-02-20T13:38:21.026Z,-40.0
2018-02-20T13:39:22.744Z,-40.0
2018-02-20T13:40:24.454Z,-40.0